Terminal Aerodrome Forecast
Issued by NWS Brownsville, TX

Home | Current Version | Previous Version | Text Only | Print | Product List | Glossary On
Versions: 1 2 3 4 5 6 7 8 9 10 11 12 13 14
000
FTUS44 KBRO 290500
TAFMFE
TAF
KMFE 290540Z 2906/3006 13008KT P6SM SKC
     FM290900 16004KT P6SM SCT015
     FM291500 16010KT P6SM FEW035
     FM291900 14012KT P6SM FEW060
     FM292200 13014G21KT P6SM FEW070
     FM300300 15008KT P6SM SKC=

USA.gov is the U.S. government's official web portal to all federal, state and local government web resources and services.